Time,TemperatureF,DewpointF,PressureIn,WindDirection,WindDirectionDegrees,WindSpeedMPH,WindSpeedGustMPH,Humidity,HourlyPrecipIn,Conditions,Clouds,dailyrainin,SoftwareType,DateUTC
2018-02-22 00:00:00,39.7,36.4,30.18,NE,45,3.0,9.0,88,0.00,,---,0.00,VWS V15.00,2018-02-22 00:00:00,
2018-02-22 00:30:00,39.3,36.0,30.18,NE,45,3.0,9.0,88,0.00,,---,0.00,VWS V15.00,2018-02-22 00:30:00,
2018-02-22 01:00:00,39.2,35.7,30.17,NE,45,3.0,9.0,87,0.00,,---,0.00,VWS V15.00,2018-02-22 01:00:00,
2018-02-22 01:30:00,39.0,35.5,30.17,NNE,22,2.0,6.0,87,0.00,,---,0.00,VWS V15.00,2018-02-22 01:30:00,
2018-02-22 02:00:00,38.7,35.5,30.16,North,0,3.0,9.0,88,0.00,,---,0.00,VWS V15.00,2018-02-22 02:00:00,
2018-02-22 02:30:00,38.3,35.3,30.16,NE,45,2.0,8.0,89,0.00,,---,0.00,VWS V15.00,2018-02-22 02:30:00,
2018-02-22 03:00:00,38.1,35.2,30.15,NE,45,2.0,6.0,89,0.00,,---,0.00,VWS V15.00,2018-02-22 03:00:00,
2018-02-22 03:30:00,38.1,35.4,30.14,NE,45,2.0,5.0,90,0.00,,---,0.00,VWS V15.00,2018-02-22 03:30:00,
2018-02-22 04:00:00,38.2,35.8,30.14,NE,45,2.0,6.0,91,0.00,,---,0.00,VWS V15.00,2018-02-22 04:00:00,
2018-02-22 04:30:00,38.0,34.8,30.14,NE,45,3.0,12.0,88,0.00,,---,0.00,VWS V15.00,2018-02-22 04:30:00,
2018-02-22 05:00:00,37.6,33.5,30.15,ENE,68,3.0,7.0,85,0.00,,---,0.00,VWS V15.00,2018-02-22 05:00:00,
2018-02-22 05:30:00,36.9,32.5,30.15,ENE,68,2.0,7.0,84,0.00,,---,0.00,VWS V15.00,2018-02-22 05:30:00,
2018-02-22 06:00:00,36.0,31.9,30.15,NE,45,1.0,4.0,85,0.00,,---,0.00,VWS V15.00,2018-02-22 06:00:00,
2018-02-22 06:30:00,35.3,31.2,30.15,NE,45,1.0,5.0,85,0.00,,---,0.00,VWS V15.00,2018-02-22 06:30:00,
2018-02-22 07:00:00,34.4,30.6,30.16,NE,45,1.0,4.0,86,0.00,,---,0.00,VWS V15.00,2018-02-22 07:00:00,
2018-02-22 08:02:00,34.4,31.2,30.16,ENE,59,3.0,3.0,88,0.00,,---,0.00,VWS V15.00,2018-02-22 08:02:00,
2018-02-22 08:07:00,34.6,31.4,30.16,NNE,15,1.0,5.0,88,0.00,,---,0.00,VWS V15.00,2018-02-22 08:07:00,
2018-02-22 08:12:00,34.8,31.3,30.16,NE,39,3.0,5.0,87,0.00,,---,0.00,VWS V15.00,2018-02-22 08:12:00,
2018-02-22 08:17:00,35.0,31.2,30.16,NE,39,3.0,5.0,86,0.00,,---,0.00,VWS V15.00,2018-02-22 08:17:00,
2018-02-22 08:22:00,35.2,31.4,30.16,ENE,62,3.0,5.0,86,0.00,,---,0.00,VWS V15.00,2018-02-22 08:22:00,
2018-02-22 08:30:00,35.1,30.8,30.16,NE,45,3.0,6.0,84,0.00,,---,0.00,VWS V15.00,2018-02-22 08:30:00,
2018-02-22 09:30:00,37.2,30.0,30.16,ENE,77,6.0,6.0,75,0.00,,---,0.00,VWS V15.00,2018-02-22 09:30:00,
2018-02-22 09:35:00,37.3,30.1,30.16,NNE,13,3.0,6.0,75,0.00,,---,0.00,VWS V15.00,2018-02-22 09:35:00,
2018-02-22 09:40:00,37.4,29.9,30.16,NE,39,3.0,8.0,74,0.00,,---,0.00,VWS V15.00,2018-02-22 09:40:00,
2018-02-22 09:45:00,37.5,30.0,30.16,NE,48,6.0,11.0,74,0.00,,---,0.00,VWS V15.00,2018-02-22 09:45:00,
2018-02-22 09:50:00,37.6,30.1,30.16,NE,43,2.0,12.0,74,0.00,,---,0.00,VWS V15.00,2018-02-22 09:50:00,
2018-02-22 09:51:00,37.6,30.1,30.16,ENE,68,4.0,11.0,74,0.00,,---,0.00,VWS V15.00,2018-02-22 09:51:00,
2018-02-22 10:45:00,37.6,30.1,30.16,NE,43,2.0,12.0,74,0.00,,---,0.00,VWS V15.00,2018-02-22 10:45:00,
2018-02-22 10:50:00,38.5,29.6,30.17,ENE,70,5.0,14.0,70,0.00,,---,0.00,VWS V15.00,2018-02-22 10:50:00,
2018-02-22 10:55:00,38.7,30.1,30.17,ENE,76,3.0,14.0,71,0.00,,---,0.00,VWS V15.00,2018-02-22 10:55:00,
2018-02-22 11:00:00,39.0,30.4,30.17,NNE,24,5.0,14.0,71,0.00,,---,0.00,VWS V15.00,2018-02-22 11:00:00,